Terminal Aerodrome Forecast
Issued by NWS

Home | Current Version | Previous Version | Text Only | Print | Product List | Glossary On
Versions: 1 2 3 4 5 6 7 8 9 10 11 12 13 14 15 16 17
000
FTUS43 KDMX 250520
TAFMCW
TAF
KMCW 250520Z 2506/2606 14009KT P6SM -SHRA VCTS SCT020 OVC040CB
     FM251300 24008KT P6SM -SHRA OVC020
     FM251400 26010KT P6SM BKN045
     FM251700 27013KT P6SM SCT070 BKN150
     FM260300 30011KT P6SM SCT150
      AMD NOT SKED=

USA.gov is the U.S. government's official web portal to all federal, state and local government web resources and services.